Time;durP1;ratioP1;P1;durP2;ratioP2;P2;SDS_P1;SDS_P2;PMS_P1;PMS_P2;Temp;Humidity;BMP_temperature;BMP_pressure;BME280_temperature;BME280_humidity;BME280_pressure;Samples;Min_cycle;Max_cycle;Signal;HPM_P1;HPM_P2
2023/07/10 00:00:29;;;;;;;4.35;1.98;;;;;;;21.73;40.57;94372.41;5051124;28;20036;-73
2023/07/10 00:02:54;;;;;;;7.60;2.38;;;;;;;21.64;40.74;94378.13;5051759;28;20086;-72
2023/07/10 00:05:21;;;;;;;4.38;2.25;;;;;;;21.50;40.88;94366.31;5050935;28;20203;-71
2023/07/10 00:07:47;;;;;;;4.38;2.58;;;;;;;21.46;40.62;94364.31;5051025;28;20536;-72
2023/07/10 00:10:15;;;;;;;2.58;2.15;;;;;;;21.43;40.91;94367.78;5050949;28;20028;-72
2023/07/10 00:12:42;;;;;;;3.10;2.65;;;;;;;21.48;40.86;94365.91;5050890;28;20037;-74
2023/07/10 00:15:20;;;;;;;3.20;2.45;;;;;;;21.42;41.21;94373.56;5052015;28;20058;-73
2023/07/10 00:17:50;;;;;;;3.00;2.70;;;;;;;21.32;41.08;94357.97;5051648;28;20153;-73
2023/07/10 00:20:19;;;;;;;4.00;2.90;;;;;;;21.33;41.55;94363.03;5044761;28;20075;-74
2023/07/10 00:22:45;;;;;;;3.88;2.25;;;;;;;21.20;41.30;94345.47;5046910;28;20359;-73
2023/07/10 00:25:15;;;;;;;4.63;2.20;;;;;;;21.28;41.62;94368.75;5052330;28;20036;-73
2023/07/10 00:27:44;;;;;;;3.50;2.30;;;;;;;21.09;42.11;94360.00;5049981;28;20040;-74
2023/07/10 00:30:18;;;;;;;3.92;2.80;;;;;;;21.05;42.39;94365.34;5051641;28;20144;-73
2023/07/10 00:32:45;;;;;;;3.07;2.53;;;;;;;21.00;42.68;94379.19;5048135;28;20135;-74
2023/07/10 00:35:16;;;;;;;2.55;2.35;;;;;;;20.94;43.01;94375.25;5052029;28;20261;-73
2023/07/10 00:37:47;;;;;;;3.70;2.25;;;;;;;20.90;43.14;94385.22;5050544;28;20605;-73
2023/07/10 00:40:22;;;;;;;2.60;2.25;;;;;;;20.91;43.44;94386.78;5047402;28;20028;-73
2023/07/10 00:42:57;;;;;;;2.53;2.33;;;;;;;20.82;43.34;94378.91;5052763;28;20037;-72
2023/07/10 00:45:22;;;;;;;3.28;2.50;;;;;;;20.78;43.61;94378.06;5050800;28;20099;-73
2023/07/10 00:48:14;;;;;;;3.08;2.35;;;;;;;20.66;43.82;94369.41;5051791;28;20032;-73
2023/07/10 00:50:46;;;;;;;4.68;2.53;;;;;;;20.63;43.30;94364.72;5050405;28;20045;-74
2023/07/10 00:53:41;;;;;;;2.78;2.20;;;;;;;20.76;42.66;94377.66;5050886;28;20033;-73
2023/07/10 00:56:14;;;;;;;4.18;2.50;;;;;;;20.78;42.61;94377.28;5048589;28;20044;-73
2023/07/10 00:58:42;;;;;;;2.55;2.10;;;;;;;20.54;42.70;94346.03;5049054;28;20021;-73
2023/07/10 01:01:10;;;;;;;4.35;3.03;;;;;;;20.71;42.35;94369.09;5052415;28;20024;-73
2023/07/10 01:03:39;;;;;;;4.43;2.50;;;;;;;20.78;42.29;94377.28;5049169;28;20039;-72
2023/07/10 01:06:31;;;;;;;3.17;2.65;;;;;;;20.77;42.39;94375.75;5052056;28;20075;-73
2023/07/10 01:09:04;;;;;;;2.90;2.15;;;;;;;20.71;42.69;94382.59;5049126;28;20048;-74
2023/07/10 01:11:32;;;;;;;6.88;2.65;;;;;;;20.64;42.49;94368.97;5048923;28;20051;-73
2023/07/10 01:14:00;;;;;;;3.00;2.70;;;;;;;20.64;43.32;94377.84;5049803;28;20029;-74
2023/07/10 01:16:26;;;;;;;4.90;2.35;;;;;;;20.51;43.55;94366.47;5052066;28;20553;-72
2023/07/10 01:18:52;;;;;;;3.50;2.63;;;;;;;20.59;43.70;94375.47;5053254;28;20044;-73
2023/07/10 01:21:38;;;;;;;3.97;2.42;;;;;;;20.59;43.77;94378.94;5053014;28;20128;-72
2023/07/10 01:24:05;;;;;;;3.13;2.60;;;;;;;20.49;43.76;94373.38;5053592;28;20055;-71
2023/07/10 01:26:33;;;;;;;4.47;2.35;;;;;;;20.41;44.13;94379.81;5054122;28;20230;-73
2023/07/10 01:28:59;;;;;;;8.40;3.05;;;;;;;20.23;44.45;94363.31;5052845;28;20048;-72
2023/07/10 01:31:27;;;;;;;4.88;2.80;;;;;;;20.26;44.39;94384.19;5057368;28;20479;-72
2023/07/10 01:33:56;;;;;;;2.80;2.50;;;;;;;20.21;44.85;94381.00;5052385;28;20497;-73
2023/07/10 01:36:25;;;;;;;4.13;2.53;;;;;;;20.13;45.00;94380.09;5055765;28;20047;-73
2023/07/10 01:39:02;;;;;;;3.97;2.45;;;;;;;19.92;45.12;94358.09;5052358;28;20043;-73
2023/07/10 01:41:39;;;;;;;2.92;2.55;;;;;;;20.05;45.13;94375.69;5052301;28;20052;-73
2023/07/10 01:44:29;;;;;;;6.70;2.63;;;;;;;20.09;45.12;94379.25;5055494;28;20048;-73
2023/07/10 01:46:57;;;;;;;5.20;3.00;;;;;;;19.97;44.93;94374.00;5054573;28;20115;-73
2023/07/10 01:49:30;;;;;;;3.25;2.95;;;;;;;19.85;45.20;94364.16;5054559;28;20481;-72
2023/07/10 01:51:58;;;;;;;4.40;2.58;;;;;;;19.87;45.52;94374.59;5055331;28;20919;-73
2023/07/10 01:54:23;;;;;;;3.70;2.47;;;;;;;19.70;45.56;94371.19;5052340;28;20040;-72
2023/07/10 01:56:49;;;;;;;3.58;2.92;;;;;;;19.74;45.81;94374.78;5048205;28;20086;-73
2023/07/10 01:59:15;;;;;;;3.92;2.70;;;;;;;19.72;46.18;94382.44;5048540;28;20405;-73
2023/07/10 02:01:40;;;;;;;4.28;2.58;;;;;;;19.69;46.34;94385.84;5052589;28;20048;-73
2023/07/10 02:04:06;;;;;;;3.00;2.60;;;;;;;19.64;46.42;94386.16;5054759;28;20024;-72
2023/07/10 02:06:35;;;;;;;3.63;3.33;;;;;;;19.60;46.71;94389.91;5052523;28;20421;-72
2023/07/10 02:09:01;;;;;;;4.95;3.15;;;;;;;19.53;46.97;94381.66;5067678;28;20653;-72
2023/07/10 02:11:27;;;;;;;4.78;3.40;;;;;;;19.44;47.23;94381.84;5053619;28;20043;-72
2023/07/10 02:13:52;;;;;;;4.35;2.92;;;;;;;19.39;47.23;94374.03;5051663;28;20270;-73
2023/07/10 02:16:18;;;;;;;4.88;3.28;;;;;;;19.42;47.17;94384.13;5053134;28;20020;-72
2023/07/10 02:18:43;;;;;;;6.13;3.28;;;;;;;19.38;47.27;94380.56;5052768;28;20412;-72
2023/07/10 02:21:09;;;;;;;3.42;3.13;;;;;;;19.46;47.11;94385.00;5053404;28;20032;-72
2023/07/10 02:23:35;;;;;;;3.75;3.40;;;;;;;19.47;47.22;94385.78;5053783;28;20048;-73
2023/07/10 02:26:01;;;;;;;4.25;3.13;;;;;;;19.40;47.54;94380.22;5053614;28;20032;-72
2023/07/10 02:28:27;;;;;;;6.60;3.63;;;;;;;19.26;47.40;94369.94;5054764;28;20569;-72
2023/07/10 02:30:52;;;;;;;3.42;3.10;;;;;;;19.37;47.30;94387.09;5050470;28;20041;-72
2023/07/10 02:33:19;;;;;;;3.97;3.58;;;;;;;19.21;47.54;94378.31;5053733;28;20051;-73
2023/07/10 02:35:47;;;;;;;6.05;3.30;;;;;;;19.14;47.96;94381.63;5053646;28;20032;-72
2023/07/10 02:38:13;;;;;;;3.58;3.25;;;;;;;19.20;48.27;94395.63;5051804;28;20151;-72
2023/07/10 02:40:39;;;;;;;8.30;3.78;;;;;;;19.14;48.28;94395.09;5053291;28;20403;-72
2023/07/10 02:43:04;;;;;;;4.93;3.88;;;;;;;19.09;48.22;94402.69;5050143;28;20036;-73
2023/07/10 02:45:30;;;;;;;3.88;3.45;;;;;;;18.95;48.37;94388.91;5053543;28;20037;-73
2023/07/10 02:47:55;;;;;;;6.80;3.90;;;;;;;18.93;48.67;94396.53;5053165;28;20136;-73
2023/07/10 02:50:21;;;;;;;5.65;3.53;;;;;;;19.04;48.46;94405.66;5052192;28;20053;-72
2023/07/10 02:52:46;;;;;;;5.00;4.22;;;;;;;18.78;48.80;94382.75;5052397;28;20034;-73
2023/07/10 02:55:12;;;;;;;4.05;3.63;;;;;;;18.86;48.98;94400.66;5053055;28;20032;-73
2023/07/10 02:57:37;;;;;;;3.70;3.17;;;;;;;18.94;49.02;94411.59;5050351;28;20068;-72
2023/07/10 03:00:06;;;;;;;3.72;3.33;;;;;;;18.87;49.04;94412.97;5051113;28;20039;-72
2023/07/10 03:02:32;;;;;;;6.00;3.85;;;;;;;18.78;49.31;94401.63;5051125;28;20128;-73
2023/07/10 03:04:57;;;;;;;6.55;4.20;;;;;;;18.78;49.39;94407.00;5053557;28;20035;-72
2023/07/10 03:07:22;;;;;;;5.35;3.92;;;;;;;18.73;49.51;94407.28;5052062;28;20086;-72
2023/07/10 03:09:49;;;;;;;4.50;3.60;;;;;;;18.66;49.67;94400.91;5050782;28;20033;-72
2023/07/10 03:12:15;;;;;;;5.28;3.53;;;;;;;18.75;49.74;94420.41;5050668;28;20039;-73
2023/07/10 03:14:40;;;;;;;3.75;3.38;;;;;;;18.68;49.94;94412.13;5052376;28;20123;-72
2023/07/10 03:17:06;;;;;;;7.03;3.92;;;;;;;18.68;49.90;94412.91;5051520;28;20043;-72
2023/07/10 03:19:31;;;;;;;5.32;3.60;;;;;;;18.69;49.98;94417.16;5051671;28;20142;-72
2023/07/10 03:21:57;;;;;;;7.93;4.45;;;;;;;18.73;50.31;94418.06;5052431;28;20041;-73
2023/07/10 03:24:23;;;;;;;10.93;3.63;;;;;;;18.72;50.35;94415.72;5051143;28;20155;-72
2023/07/10 03:26:48;;;;;;;3.95;3.42;;;;;;;18.65;50.43;94410.91;5051710;28;20036;-72
2023/07/10 03:29:15;;;;;;;5.55;3.80;;;;;;;18.70;50.75;94418.75;5051610;28;20497;-72
2023/07/10 03:31:40;;;;;;;5.63;3.92;;;;;;;18.73;50.61;94417.25;5049200;28;20039;-72
2023/07/10 03:34:06;;;;;;;6.15;4.13;;;;;;;18.58;50.46;94389.19;5053042;28;20040;-73
2023/07/10 03:36:32;;;;;;;3.92;3.53;;;;;;;18.69;49.64;94406.38;5051871;28;20040;-72
2023/07/10 03:38:58;;;;;;;6.40;3.78;;;;;;;18.80;49.74;94402.06;5045700;28;20044;-72
2023/07/10 03:41:23;;;;;;;6.35;3.80;;;;;;;18.90;49.62;94416.91;5049998;28;20090;-73
2023/07/10 03:43:48;;;;;;;5.18;4.63;;;;;;;18.98;49.44;94417.84;5050659;28;20040;-73
2023/07/10 03:46:17;;;;;;;9.20;4.78;;;;;;;19.04;49.97;94421.81;5052959;28;20028;-73
2023/07/10 03:48:43;;;;;;;4.95;3.35;;;;;;;19.06;49.81;94430.34;5051410;28;20885;-72
2023/07/10 03:51:09;;;;;;;4.10;3.70;;;;;;;19.12;50.06;94429.72;5052975;28;20053;-72
2023/07/10 03:53:35;;;;;;;6.25;4.68;;;;;;;19.17;50.15;94432.13;5049742;28;20456;-73
2023/07/10 03:56:00;;;;;;;4.80;4.00;;;;;;;19.18;49.97;94439.09;5049834;28;20045;-73
2023/07/10 03:58:29;;;;;;;7.90;4.60;;;;;;;19.17;50.35;94424.06;5052540;28;20515;-72
2023/07/10 04:00:58;;;;;;;10.90;5.10;;;;;;;19.20;50.11;94442.22;5049767;28;20131;-73
2023/07/10 04:03:25;;;;;;;7.20;4.95;;;;;;;19.21;50.27;94443.03;5052112;28;20139;-72
2023/07/10 04:05:52;;;;;;;6.75;4.80;;;;;;;19.22;49.74;94455.34;5051576;28;20089;-72
2023/07/10 04:08:22;;;;;;;6.70;4.53;;;;;;;19.34;49.29;94452.53;5051575;28;20044;-73
2023/07/10 04:10:52;;;;;;;8.05;3.90;;;;;;;19.35;48.82;94443.31;5050512;28;20419;-72
2023/07/10 04:13:18;;;;;;;11.30;4.40;;;;;;;19.50;48.85;94455.22;5052055;28;20027;-73
2023/07/10 04:16:11;;;;;;;8.38;5.15;;;;;;;19.54;49.11;94451.47;5048219;28;20032;-73
2023/07/10 04:18:39;;;;;;;7.68;4.85;;;;;;;19.56;49.28;94443.78;5051024;28;20049;-72
2023/07/10 04:21:13;;;;;;;8.30;4.88;;;;;;;19.54;48.92;94429.88;5050675;28;20036;-72
2023/07/10 04:23:39;;;;;;;6.07;4.63;;;;;;;19.75;48.93;94443.00;5052116;28;20043;-72
2023/07/10 04:26:06;;;;;;;6.80;4.30;;;;;;;19.73;48.53;94429.09;5050254;28;20048;-72
2023/07/10 04:28:32;;;;;;;12.52;4.72;;;;;;;19.87;48.37;94425.88;5051686;28;20031;-73
2023/07/10 04:30:57;;;;;;;6.72;5.32;;;;;;;19.96;48.97;94442.63;5050184;28;20537;-73
2023/07/10 04:33:22;;;;;;;7.07;4.20;;;;;;;19.96;48.98;94442.63;5049972;28;20036;-72
2023/07/10 04:35:56;;;;;;;7.22;5.53;;;;;;;20.10;48.52;94448.31;5048011;28;20496;-73
2023/07/10 04:38:27;;;;;;;6.35;4.53;;;;;;;20.03;48.19;94429.28;5050072;28;20094;-72
2023/07/10 04:41:01;;;;;;;10.52;5.03;;;;;;;20.13;47.96;94448.38;5051589;28;20036;-72
2023/07/10 04:43:30;;;;;;;12.23;5.67;;;;;;;20.21;48.15;94452.00;5049129;28;20063;-73
2023/07/10 04:45:57;;;;;;;14.88;6.65;;;;;;;20.17;49.04;94440.38;5051809;28;20320;-74
2023/07/10 04:48:24;;;;;;;13.90;7.47;;;;;;;20.15;48.67;94426.41;5048765;28;20138;-73
2023/07/10 04:50:51;;;;;;;11.38;6.20;;;;;;;20.34;49.13;94450.69;5051307;28;20048;-72
2023/07/10 04:53:18;;;;;;;10.90;6.40;;;;;;;20.42;49.46;94457.03;5050952;28;20041;-73
2023/07/10 04:55:44;;;;;;;7.57;5.85;;;;;;;20.48;49.67;94445.53;5055711;28;20021;-71
2023/07/10 04:58:10;;;;;;;12.85;5.10;;;;;;;20.62;47.92;94444.22;5055021;28;20082;-74
2023/07/10 05:00:36;;;;;;;6.15;3.67;;;;;;;20.56;45.79;94441.84;5053896;28;20634;-72
2023/07/10 05:03:03;;;;;;;4.72;3.60;;;;;;;20.65;45.81;94433.47;5054101;28;20081;-71
2023/07/10 05:05:29;;;;;;;5.75;3.70;;;;;;;20.25;46.33;94417.75;5053899;28;20067;-73
2023/07/10 05:07:54;;;;;;;6.20;3.53;;;;;;;20.47;45.32;94427.78;5054900;28;20482;-72
2023/07/10 05:10:20;;;;;;;4.32;3.28;;;;;;;20.32;44.45;94415.19;5053840;28;20033;-72
2023/07/10 05:12:45;;;;;;;4.28;3.28;;;;;;;20.49;44.97;94416.59;5054195;28;20033;-72
2023/07/10 05:15:11;;;;;;;5.88;3.28;;;;;;;20.65;44.35;94438.88;5055253;28;20090;-72
2023/07/10 05:17:36;;;;;;;5.70;3.38;;;;;;;20.44;44.52;94401.47;5053248;28;20052;-73
2023/07/10 05:20:02;;;;;;;5.68;3.20;;;;;;;20.85;44.77;94436.88;5054422;28;20041;-72
2023/07/10 05:22:28;;;;;;;6.63;3.05;;;;;;;20.86;44.08;94439.22;5054253;28;20032;-73
2023/07/10 05:24:53;;;;;;;6.13;3.50;;;;;;;20.96;44.14;94427.03;5054675;28;20573;-72
2023/07/10 05:27:18;;;;;;;12.07;3.67;;;;;;;20.94;44.36;94435.50;5053315;28;20112;-73
2023/07/10 05:29:44;;;;;;;5.65;3.28;;;;;;;21.20;43.95;94447.47;5054986;28;20024;-72
2023/07/10 05:32:09;;;;;;;6.72;3.33;;;;;;;20.93;43.24;94444.75;5053071;28;20040;-72
2023/07/10 05:34:34;;;;;;;5.00;3.10;;;;;;;20.96;43.74;94438.63;5055941;28;20082;-73
2023/07/10 05:37:00;;;;;;;13.02;3.78;;;;;;;20.96;43.76;94446.75;5051334;28;20044;-73
2023/07/10 05:39:29;;;;;;;6.05;3.25;;;;;;;21.03;43.89;94448.75;5055214;28;20036;-73
2023/07/10 05:41:54;;;;;;;7.30;3.95;;;;;;;21.18;43.71;94444.34;5053388;28;20033;-72
2023/07/10 05:44:19;;;;;;;5.65;3.40;;;;;;;21.07;43.40;94448.84;5054002;28;20502;-73
2023/07/10 05:46:45;;;;;;;5.00;2.90;;;;;;;20.99;43.77;94431.72;5054203;28;20036;-72
2023/07/10 05:49:10;;;;;;;6.53;3.20;;;;;;;21.26;43.01;94422.47;5055004;28;20361;-73
2023/07/10 05:51:36;;;;;;;5.13;3.10;;;;;;;21.52;43.38;94437.06;5051886;28;20098;-73
2023/07/10 05:54:02;;;;;;;3.30;3.00;;;;;;;21.55;42.80;94441.81;5054055;28;20033;-72
2023/07/10 05:56:27;;;;;;;5.53;3.83;;;;;;;21.57;43.21;94440.28;5052334;28;20040;-73
2023/07/10 05:58:52;;;;;;;4.80;3.20;;;;;;;21.71;43.21;94436.94;5055186;28;20031;-72
2023/07/10 06:01:18;;;;;;;7.75;3.47;;;;;;;21.81;42.57;94444.44;5052641;28;20020;-71
2023/07/10 06:03:43;;;;;;;9.50;4.07;;;;;;;21.61;42.90;94424.84;5051507;28;20190;-72
2023/07/10 06:06:09;;;;;;;5.25;3.60;;;;;;;21.67;42.52;94450.47;5052785;28;20094;-72
2023/07/10 06:08:35;;;;;;;7.88;3.70;;;;;;;21.45;42.38;94443.19;5053200;28;20400;-73
2023/07/10 06:11:01;;;;;;;9.20;3.72;;;;;;;21.75;43.03;94440.50;5052217;28;20048;-72
2023/07/10 06:13:26;;;;;;;8.77;3.97;;;;;;;21.79;42.19;94430.50;5052495;28;20027;-72
2023/07/10 06:15:54;;;;;;;8.50;3.47;;;;;;;21.80;42.53;94448.31;5052744;28;20120;-72
2023/07/10 06:18:20;;;;;;;4.13;3.25;;;;;;;21.84;42.38;94443.72;5052021;28;20079;-72
2023/07/10 06:20:53;;;;;;;6.97;4.03;;;;;;;22.07;42.22;94438.16;5052157;28;20579;-73
2023/07/10 06:23:19;;;;;;;5.43;3.30;;;;;;;22.07;41.95;94436.22;5053933;28;20382;-72
2023/07/10 06:25:45;;;;;;;8.02;4.35;;;;;;;22.24;41.87;94434.91;5053080;28;20037;-73
2023/07/10 06:28:11;;;;;;;5.22;3.42;;;;;;;22.22;42.17;94431.75;5054114;28;20025;-73
2023/07/10 06:30:52;;;;;;;4.25;3.20;;;;;;;22.37;41.63;94438.09;5053334;28;20051;-73
2023/07/10 06:33:18;;;;;;;10.88;3.90;;;;;;;22.38;42.03;94443.16;5054473;28;20052;-72
2023/07/10 06:35:43;;;;;;;8.15;3.72;;;;;;;22.34;41.40;94430.72;5050362;28;20033;-72
2023/07/10 06:38:09;;;;;;;5.82;3.63;;;;;;;22.47;42.31;94448.25;5054041;28;20036;-71
2023/07/10 06:40:34;;;;;;;7.03;3.63;;;;;;;22.49;41.80;94440.53;5050971;28;20036;-73
2023/07/10 06:42:59;;;;;;;8.38;3.60;;;;;;;22.53;42.05;94442.16;5052803;28;20033;-73
2023/07/10 06:45:25;;;;;;;4.88;4.35;;;;;;;22.44;42.18;94417.25;5052581;28;20431;-73
2023/07/10 06:47:50;;;;;;;9.27;3.92;;;;;;;22.41;41.67;94450.53;5054502;28;20528;-73
2023/07/10 06:50:16;;;;;;;11.65;4.35;;;;;;;22.38;42.03;94440.44;5045778;28;20049;-74
2023/07/10 06:52:44;;;;;;;6.93;3.83;;;;;;;22.26;41.69;94455.03;5051585;28;20032;-73
2023/07/10 06:55:15;;;;;;;4.97;4.00;;;;;;;22.45;43.21;94450.56;5052523;28;20042;-73
2023/07/10 06:57:41;;;;;;;7.90;3.63;;;;;;;22.67;41.55;94446.91;5051105;28;20032;-73
2023/07/10 07:00:09;;;;;;;6.65;4.00;;;;;;;22.38;41.64;94455.94;5053444;28;20430;-73
2023/07/10 07:02:36;;;;;;;11.23;4.60;;;;;;;22.33;42.37;94443.50;5052123;28;20647;-72
2023/07/10 07:05:03;;;;;;;5.30;3.97;;;;;;;22.25;43.60;94448.06;5052508;28;20052;-73
2023/07/10 07:07:28;;;;;;;4.68;3.70;;;;;;;22.23;42.90;94439.53;5052896;28;20028;-71
2023/07/10 07:09:53;;;;;;;9.52;4.13;;;;;;;22.58;43.26;94446.44;5052057;28;20079;-71
2023/07/10 07:12:19;;;;;;;4.45;3.53;;;;;;;22.59;42.25;94434.41;5049313;28;20043;-71
2023/07/10 07:14:44;;;;;;;6.15;3.35;;;;;;;22.52;42.62;94431.66;5052981;28;20141;-72
2023/07/10 07:17:10;;;;;;;10.88;4.07;;;;;;;22.69;43.05;94447.28;5052004;28;20025;-72
2023/07/10 07:19:35;;;;;;;6.97;4.15;;;;;;;22.89;42.35;94453.28;5051741;28;20040;-72
2023/07/10 07:22:01;;;;;;;6.65;3.83;;;;;;;22.59;41.94;94434.41;5051778;28;20047;-72
2023/07/10 07:24:26;;;;;;;8.52;3.83;;;;;;;22.76;42.45;94449.28;5051051;28;20097;-71
2023/07/10 07:26:52;;;;;;;5.53;4.05;;;;;;;22.70;42.31;94446.94;5052641;28;20060;-71
2023/07/10 07:29:18;;;;;;;8.30;4.68;;;;;;;22.76;41.75;94438.44;5050819;28;20044;-71
2023/07/10 07:31:43;;;;;;;6.07;4.35;;;;;;;22.68;41.92;94429.50;5052073;28;20028;-72
2023/07/10 07:34:09;;;;;;;7.07;3.65;;;;;;;22.63;42.19;94438.72;5051854;28;20062;-72
2023/07/10 07:36:36;;;;;;;3.70;3.40;;;;;;;22.62;42.39;94417.44;5053535;28;20123;-71
2023/07/10 07:39:03;;;;;;;4.68;3.35;;;;;;;22.95;42.41;94441.72;5051153;28;20118;-72
2023/07/10 07:41:31;;;;;;;5.38;3.88;;;;;;;22.98;42.25;94426.63;5049031;28;20036;-72
2023/07/10 07:43:57;;;;;;;4.32;3.92;;;;;;;23.10;41.75;94432.53;5052430;28;20362;-71
2023/07/10 07:46:22;;;;;;;5.50;4.18;;;;;;;23.24;40.92;94439.19;5051754;28;20028;-72
2023/07/10 07:48:48;;;;;;;6.05;3.80;;;;;;;23.15;40.62;94423.25;5051351;28;20412;-72
2023/07/10 07:51:13;;;;;;;7.68;3.95;;;;;;;23.34;40.75;94430.34;5051316;28;20302;-71
2023/07/10 07:53:41;;;;;;;5.10;3.58;;;;;;;23.31;40.80;94431.91;5050456;28;20043;-71
2023/07/10 07:56:06;;;;;;;6.85;3.47;;;;;;;23.39;40.51;94432.72;5051262;28;20085;-71
2023/07/10 07:58:32;;;;;;;4.75;3.85;;;;;;;23.36;39.98;94426.13;5053389;28;20024;-73
2023/07/10 08:00:59;;;;;;;4.65;3.85;;;;;;;23.26;41.25;94428.75;5050394;28;20416;-71
2023/07/10 08:03:25;;;;;;;4.72;3.47;;;;;;;23.35;41.15;94421.06;5052604;28;20552;-72
2023/07/10 08:05:51;;;;;;;7.45;3.60;;;;;;;23.55;41.50;94427.78;5050277;28;21074;-72
2023/07/10 08:08:17;;;;;;;3.90;3.58;;;;;;;23.55;40.28;94414.22;5051534;28;20040;-72
2023/07/10 08:10:46;;;;;;;3.85;3.40;;;;;;;23.44;39.64;94427.69;5049862;28;20024;-73
2023/07/10 08:13:12;;;;;;;5.18;3.10;;;;;;;23.48;40.44;94423.06;5050149;28;20017;-72
2023/07/10 08:15:38;;;;;;;5.22;3.22;;;;;;;23.46;39.50;94424.63;5047885;28;20114;-72
2023/07/10 08:18:03;;;;;;;8.05;3.78;;;;;;;23.50;41.41;94423.50;5049661;28;20036;-72
2023/07/10 08:20:29;;;;;;;5.72;3.47;;;;;;;23.41;40.50;94422.25;5049622;28;20644;-72
2023/07/10 08:22:54;;;;;;;5.32;3.35;;;;;;;23.37;40.54;94416.00;5049144;28;20733;-72
2023/07/10 08:25:20;;;;;;;4.50;3.20;;;;;;;23.43;40.46;94423.44;5051149;28;20750;-71
2023/07/10 08:27:46;;;;;;;5.10;3.63;;;;;;;23.50;41.68;94420.00;5048349;28;20032;-71
2023/07/10 08:30:12;;;;;;;4.00;3.10;;;;;;;23.39;40.22;94427.28;5052016;28;20087;-72
2023/07/10 08:32:38;;;;;;;8.38;3.47;;;;;;;23.43;40.24;94419.94;5051054;28;20037;-72
2023/07/10 08:35:04;;;;;;;5.22;3.50;;;;;;;23.56;40.59;94407.63;5049738;28;20041;-72
2023/07/10 08:37:29;;;;;;;4.53;3.47;;;;;;;23.54;41.29;94412.66;5051455;28;20032;-72
2023/07/10 08:39:58;;;;;;;5.10;3.92;;;;;;;23.58;40.03;94422.38;5050756;28;20085;-72
2023/07/10 08:42:28;;;;;;;6.32;3.00;;;;;;;23.61;40.36;94417.34;5050366;28;20036;-72
2023/07/10 08:44:55;;;;;;;4.05;3.38;;;;;;;23.55;39.89;94408.78;5051452;28;20288;-72
2023/07/10 08:47:30;;;;;;;6.45;3.55;;;;;;;23.56;40.63;94426.63;5051307;28;20472;-74
2023/07/10 08:50:10;;;;;;;3.70;3.05;;;;;;;23.66;39.53;94414.28;5051524;28;20032;-72
2023/07/10 08:52:49;;;;;;;7.07;2.95;;;;;;;23.56;40.01;94404.91;5052159;28;20028;-71
2023/07/10 08:55:22;;;;;;;4.55;3.58;;;;;;;23.72;39.29;94413.50;5052227;28;20045;-72
2023/07/10 08:57:56;;;;;;;5.05;2.88;;;;;;;23.77;39.47;94410.41;5049449;28;20037;-72
2023/07/10 09:00:21;;;;;;;3.58;3.25;;;;;;;23.75;38.62;94418.19;5051129;28;20044;-72
2023/07/10 09:03:00;;;;;;;3.65;2.70;;;;;;;23.81;39.35;94424.78;5050095;28;20107;-71
2023/07/10 09:05:29;;;;;;;4.82;3.88;;;;;;;23.86;38.99;94413.56;5050980;28;20918;-72
2023/07/10 09:07:57;;;;;;;3.53;2.55;;;;;;;24.06;39.60;94421.38;5050538;28;20090;-71
2023/07/10 09:10:25;;;;;;;5.85;3.40;;;;;;;24.19;38.59;94414.47;5051695;28;20103;-72
2023/07/10 09:12:53;;;;;;;3.55;3.25;;;;;;;24.24;38.42;94411.38;5049997;28;20090;-72
2023/07/10 09:15:30;;;;;;;3.72;3.42;;;;;;;24.30;38.32;94409.81;5050642;28;20037;-72
2023/07/10 09:18:35;;;;;;;4.75;3.47;;;;;;;24.34;37.93;94407.91;5050758;28;20035;-72
2023/07/10 09:21:12;;;;;;;5.47;3.30;;;;;;;24.27;37.33;94416.03;5049338;28;20032;-71
2023/07/10 09:23:38;;;;;;;5.68;3.40;;;;;;;24.24;37.35;94405.94;5049320;28;20047;-72
2023/07/10 09:26:18;;;;;;;5.50;3.47;;;;;;;24.14;37.72;94390.38;5050227;28;20326;-71
2023/07/10 09:29:02;;;;;;;4.22;2.90;;;;;;;24.13;38.62;94410.56;5050334;28;20020;-71
2023/07/10 09:32:07;;;;;;;3.33;3.03;;;;;;;24.11;37.69;94396.53;5052111;28;20056;-73
2023/07/10 09:34:34;;;;;;;3.80;3.00;;;;;;;24.00;39.05;94397.28;5044465;28;20036;-72
2023/07/10 09:37:02;;;;;;;3.45;3.00;;;;;;;23.98;37.53;94405.06;5048276;28;20040;-72
2023/07/10 09:39:30;;;;;;;5.15;2.95;;;;;;;24.04;38.04;94405.47;5045047;28;20143;-72
2023/07/10 09:42:00;;;;;;;5.57;3.03;;;;;;;23.99;38.04;94401.19;5050025;28;20025;-72
2023/07/10 09:44:38;;;;;;;4.05;3.33;;;;;;;24.02;40.46;94373.25;5051931;28;20052;-71
2023/07/10 09:47:12;;;;;;;7.20;2.92;;;;;;;24.23;37.70;94405.16;5054052;28;21046;-71
2023/07/10 09:49:58;;;;;;;6.75;3.65;;;;;;;24.03;38.09;94371.31;5052715;28;20579;-72
2023/07/10 09:52:39;;;;;;;4.15;3.30;;;;;;;24.21;36.80;94401.25;5055974;28;20056;-72
2023/07/10 09:55:07;;;;;;;3.33;2.85;;;;;;;24.24;36.45;94400.50;5051056;28;20033;-72
2023/07/10 09:57:52;;;;;;;3.25;2.95;;;;;;;24.13;35.94;94389.59;5053990;28;20687;-72
2023/07/10 10:00:19;;;;;;;4.13;3.15;;;;;;;24.02;36.26;94384.13;5053779;28;20055;-72
2023/07/10 10:02:54;;;;;;;4.07;2.60;;;;;;;24.12;37.97;94384.53;5052140;28;20033;-71
2023/07/10 10:05:21;;;;;;;4.70;2.72;;;;;;;24.22;35.79;94390.00;5053154;28;20079;-72
2023/07/10 10:07:49;;;;;;;4.10;2.63;;;;;;;24.30;35.65;94377.19;5052814;28;20020;-72
2023/07/10 10:10:18;;;;;;;3.00;2.60;;;;;;;24.35;34.68;94368.66;5053350;28;20082;-71
2023/07/10 10:12:46;;;;;;;10.20;3.03;;;;;;;24.42;33.59;94363.22;5052286;28;20037;-71
2023/07/10 10:15:25;;;;;;;5.35;2.90;;;;;;;24.35;33.15;94376.81;5052465;28;20090;-72
2023/07/10 10:17:52;;;;;;;4.30;2.47;;;;;;;24.43;33.17;94359.34;5052236;28;20528;-71
2023/07/10 10:20:26;;;;;;;5.18;2.50;;;;;;;24.33;33.63;94365.56;5046406;28;20040;-72
2023/07/10 10:22:52;;;;;;;;;;;;;;;24.34;32.20;94362.47;5053269;28;20025;-72
2023/07/10 10:25:27;;;;;;;6.72;2.83;;;;;;;24.18;31.06;94347.69;5054052;28;20430;-72
2023/07/10 10:28:37;;;;;;;3.42;2.58;;;;;;;24.23;30.00;94360.88;5051308;28;20029;-72
2023/07/10 10:31:09;;;;;;;3.88;2.35;;;;;;;24.27;32.38;94359.72;5040313;28;20521;-71
2023/07/10 10:34:00;;;;;;;3.05;2.00;;;;;;;24.18;31.32;94362.06;5052753;28;20519;-72
2023/07/10 10:36:59;;;;;;;3.15;2.17;;;;;;;24.20;31.67;94339.94;5027648;28;20093;-71
2023/07/10 10:39:36;;;;;;;2.42;2.22;;;;;;;24.45;32.29;94354.28;5053676;28;20051;-71
2023/07/10 10:42:10;;;;;;;3.00;2.50;;;;;;;24.41;31.62;94342.63;5051738;28;20064;-71
2023/07/10 10:45:13;;;;;;;3.67;2.45;;;;;;;24.59;32.23;94356.25;5052300;28;20505;-72
2023/07/10 10:47:57;;;;;;;2.90;2.65;;;;;;;24.58;33.03;94355.47;5053050;28;20075;-72
2023/07/10 10:50:35;;;;;;;2.92;2.63;;;;;;;24.40;32.29;94339.13;5052379;28;20106;-71
2023/07/10 10:53:32;;;;;;;6.20;2.58;;;;;;;24.43;32.25;94354.69;5050245;28;20048;-72
2023/07/10 10:56:13;;;;;;;4.65;2.45;;;;;;;24.52;32.54;94343.44;5048475;28;20075;-71
2023/07/10 10:59:00;;;;;;;4.88;3.08;;;;;;;24.60;30.78;94346.91;5053290;28;20028;-72
2023/07/10 11:01:42;;;;;;;4.20;2.55;;;;;;;24.66;33.27;94340.69;5051654;28;20044;-71
2023/07/10 11:04:31;;;;;;;4.05;2.55;;;;;;;24.71;33.09;94340.34;5052124;28;20254;-71
2023/07/10 11:07:07;;;;;;;2.70;2.20;;;;;;;24.73;33.00;94337.22;5052817;28;20774;-72
2023/07/10 11:09:42;;;;;;;3.95;2.47;;;;;;;24.67;32.19;94320.50;5051352;28;20041;-72
2023/07/10 11:12:16;;;;;;;6.65;2.15;;;;;;;24.75;31.47;94316.63;5051474;28;20400;-71
2023/07/10 11:14:43;;;;;;;4.00;2.80;;;;;;;24.84;31.64;94329.81;5052159;28;20433;-71
2023/07/10 11:17:11;;;;;;;3.58;2.75;;;;;;;24.57;31.92;94279.72;5051206;28;20890;-71
2023/07/10 11:19:37;;;;;;;2.45;2.17;;;;;;;24.77;31.75;94330.63;5052121;28;20055;-72
2023/07/10 11:22:32;;;;;;;3.80;3.38;;;;;;;24.77;31.74;94329.84;5052688;28;20156;-71
2023/07/10 11:25:01;;;;;;;3.08;2.67;;;;;;;24.83;32.75;94323.59;5052423;28;20056;-72
2023/07/10 11:27:35;;;;;;;3.83;2.90;;;;;;;24.77;32.15;94303.41;5051283;28;20062;-71
2023/07/10 11:30:24;;;;;;;;;;;;;;;24.99;32.56;94325.91;5052497;28;20029;-72
2023/07/10 11:32:57;;;;;;;4.43;3.20;;;;;;;24.96;31.64;94315.03;5049925;28;19916;-71
2023/07/10 11:35:23;;;;;;;6.28;2.83;;;;;;;25.03;31.19;94320.47;5050361;28;20036;-72
2023/07/10 11:37:49;;;;;;;2.92;2.42;;;;;;;25.00;31.80;94318.50;5051464;28;20025;-71
2023/07/10 11:40:23;;;;;;;4.72;2.80;;;;;;;25.07;29.28;94322.00;5051976;28;20047;-72
2023/07/10 11:42:49;;;;;;;3.38;2.33;;;;;;;25.16;30.82;94313.44;5051585;28;20040;-71
2023/07/10 11:45:14;;;;;;;3.47;2.63;;;;;;;25.19;30.85;94299.00;5049758;28;20036;-72